Skip to main content

NOAA/GLERL Met Station at Michigan City, IN

Previous 5 days (top of hour only)
See also Previous 3 Hours (2 minute increments)
Jump down to Data
Switch to [English][Metric]
Zoom: Click and drag, Pan: shift-click and drag, Unzoom: double-click, Unzoom All





Note: Speed = mean wind during 2-minute period at top of hour,
Gust = max wind during 2-minute period at top of hour,
Peak = max wind during entire hour.
• See also 5-day windrose plot


NOAA/GLERL Met Station at Michigan City, IN

Previous 5 days (top of hour only)
See also Previous 3 Hours (2 minute increments)
Jump up to Graphs
Switch to [English][Metric]
                  Wind  Wind  Wind   Air   Dew   Rel     Sta   PAR
                   Spd   Gst   Dir  Temp    Pt   Hum    Pres uE/m2/
YYYY-MM-DD   CDT   kts   kts   deg     F     F     %   in Hg   sec
2020-08-16 00:00 -99.0 -99.0   -99   0.0   0.0   0.0    0.00     0
2020-08-15 12:00   5.2   5.6   338  76.3  70.2  81.1    0.00  1559
2020-08-15 11:00   8.6   8.7   300  76.3  69.1  78.0    0.00  1153
2020-08-15 10:00   3.3   3.5   269  73.9  67.3  79.5    0.00  1227
2020-08-15 09:00   3.9   4.7   244  71.8  67.3  85.6    0.00   903
2020-08-15 08:00   3.9   5.2   157  71.1  65.7  82.9    0.00   657
2020-08-15 07:00   3.7   4.1   127  68.4  64.7  88.0    0.00   247
2020-08-15 06:00   2.1   2.5   117  69.3  65.5  87.7    0.00     0
2020-08-15 05:00   1.6   1.7   104  70.2  66.1  86.7    0.00     0
2020-08-15 04:00   0.8   1.6   230  70.3  65.1  83.2    0.00     0
2020-08-15 03:00   5.2   6.8   139  70.2  65.1  83.6    0.00     0
2020-08-15 02:00   8.2   9.7   140  71.1  65.0  80.9    0.00     0
2020-08-15 01:00   9.7  12.1   130  71.8  65.3  79.7    0.00     0
2020-08-15 00:00   9.9  12.1   126  73.0  65.6  77.2    0.00     0
2020-08-14 23:00   8.4  10.3   125  73.9  66.5  77.2    0.00     0
2020-08-14 22:00  10.1  12.1    72  75.2  70.1  83.9    0.00     0
2020-08-14 21:00   9.3  10.5    22  75.4  71.0  86.0    0.00     0
2020-08-14 20:00   8.9   9.7    23  75.6  70.8  85.0    0.00     0
2020-08-14 19:00   7.8   8.6    26  75.9  70.6  83.4    0.00   164
2020-08-14 18:00   8.9   9.5    34  76.3  70.1  81.0    0.00   492
2020-08-14 17:00  13.6  14.2    14  76.1  69.8  80.6    0.00   821
2020-08-14 16:00  14.4  15.4   345  77.7  70.6  78.3    0.00  1067
2020-08-14 15:00  10.5  11.7   353  77.9  70.0  76.2    0.00  1313
2020-08-14 14:00   7.8   8.4    13  75.2  69.4  82.0    0.00  1477
2020-08-14 13:00  10.7  11.1     4  75.4  68.5  78.8    0.00  1559
2020-08-14 12:00   9.3  10.1     2  75.7  66.7  73.2    0.00  1477
2020-08-14 11:00   8.4   9.7     8  74.7  65.3  72.2    0.00  1396
2020-08-14 10:00   6.6   7.0    32  73.4  63.0  69.5    0.00  1150
2020-08-14 09:00   5.4   6.0    22  72.1  62.5  71.2    0.00   904
2020-08-14 08:00   6.4   7.4    57  71.4  61.9  71.5    0.00   647
2020-08-14 07:00   6.0   6.8    71  69.1  62.4  79.1    0.00   247
2020-08-14 06:00   4.5   4.9    60  68.4  61.2  77.7    0.00     0
2020-08-14 05:00   3.7   4.7    68  68.9  61.1  75.8    0.00     0
2020-08-14 04:00   2.9   3.5    66  69.6  61.2  74.3    0.00     0
2020-08-14 03:00   1.2   1.6   156  69.6  62.3  77.3    0.00     0
2020-08-14 02:00   5.2   5.6    93  70.9  61.4  71.6    0.00     0
2020-08-14 01:00   3.5   4.3    63  70.7  64.6  80.6    0.00     0
2020-08-14 00:00   6.0   6.8    60  73.4  65.0  74.6    0.00     0
2020-08-13 23:00   4.5   5.2    64  74.3  68.5  81.9    0.00     0
2020-08-13 22:00  10.1  10.9    52  74.8  71.8  90.0    0.00     0
2020-08-13 21:00  10.3  10.9    47  75.4  70.5  84.7    0.00     0
2020-08-13 20:00  10.7  11.9    36  75.6  70.0  82.6    0.00     0
2020-08-13 19:00  11.7  12.8    25  75.7  68.6  78.2    0.00   164
2020-08-13 18:00  11.5  12.4    35  76.1  67.3  73.9    0.00   492
2020-08-13 17:00  14.8  15.9    22  75.7  68.0  76.5    0.00   821
2020-08-13 16:00  16.1  17.1    11  75.4  67.8  76.9    0.00  1067
2020-08-13 15:00  11.3  12.1    22  75.4  68.0  77.6    0.00  1313
2020-08-13 14:00   7.0   8.6   119  80.4  59.5  48.3    0.00  1407
2020-08-13 13:00   8.0   9.7   128  79.3  52.7  39.0    0.00  1559
2020-08-13 12:00   8.9   9.7    36  73.8  60.6  62.9    0.00  1452
2020-08-13 11:00   8.0   8.6    34  72.5  60.0  64.3    0.00  1480
2020-08-13 10:00   5.8   6.4    32  72.7  58.8  61.3    0.00   936
2020-08-13 09:00   2.7   3.1   359  73.4  59.6  61.4    0.00   844
2020-08-13 08:00   5.8   7.2   120  68.9  58.4  68.7    0.00   485
2020-08-13 07:00   7.6   8.4   130  67.1  58.7  74.2    0.00   303
2020-08-13 06:00   8.4   9.1   140  66.2  59.2  77.8    0.00     0
2020-08-13 05:00   2.7   4.3   123  66.2  60.2  80.7    0.00     0
2020-08-13 04:00   3.7   4.3   126  68.0  60.8  77.5    0.00     0
2020-08-13 03:00   1.0   1.4    78  67.3  62.2  83.6    0.00     0
2020-08-13 02:00   5.2   5.8    71  67.8  63.5  85.7    0.00     0
2020-08-13 01:00   1.6   2.3   110  68.9  62.5  79.9    0.00     0
2020-08-13 00:00   3.3   3.9    74  69.8  63.4  79.8    0.00     0
2020-08-12 23:00   5.2   6.2    73  71.4  65.5  81.3    0.00     0
2020-08-12 22:00   6.6   8.0    75  73.0  65.1  75.9    0.00     0
2020-08-12 21:00  12.8  13.8    47  74.7  66.6  75.5    0.00     0
2020-08-12 20:00  12.4  13.4    43  74.8  66.4  74.5    0.00     0
2020-08-12 19:00  10.9  11.7    44  75.2  65.7  71.8    0.00   164
2020-08-12 18:00  11.5  12.8    47  75.4  66.4  73.3    0.00   492
2020-08-12 17:00  12.6  13.2    31  75.2  64.9  69.8    0.00   872
2020-08-12 16:00  11.9  12.8    22  74.8  66.3  74.4    0.00  1067
2020-08-12 15:00  13.2  14.2    14  74.8  65.2  71.6    0.00  1313
2020-08-12 14:00  12.4  13.0    10  74.5  63.5  68.1    0.00  1477
2020-08-12 13:00  10.7  11.3     4  75.0  63.2  66.1    0.00  1559
2020-08-12 12:00  10.7  11.9    19  73.2  62.1  67.8    0.00  1559
2020-08-12 11:00   8.7   9.7    28  72.5  60.7  66.1    0.00  1406
2020-08-12 10:00   8.6   8.9    44  71.6  57.8  61.2    0.00  1228
2020-08-12 09:00   5.6   6.4    42  70.2  61.2  72.8    0.00   904
2020-08-12 08:00   2.3   3.3    83  68.7  58.4  69.2    0.00   658
2020-08-12 07:00   1.9   2.1    87  65.5  55.8  70.6    0.00   274
2020-08-12 06:00   2.9   3.3   108  63.9  55.6  74.1    0.00     0
2020-08-12 05:00   2.5   3.1   127  62.6  57.0  81.6    0.00     0
2020-08-12 04:00   3.3   3.9   134  63.1  58.2  83.6    0.00     0
2020-08-12 03:00   5.6   5.8   125  65.1  55.6  71.0    0.00     0
2020-08-12 02:00   5.2   5.6   124  67.3  55.9  66.5    0.00     0
2020-08-12 01:00   6.4   6.8   139  64.9  59.1  81.1    0.00     0
2020-08-12 00:00   5.1   5.4   134  66.9  60.0  78.1    0.00     0
2020-08-11 23:00   4.7   5.1   138  66.9  61.7  83.0    0.00     0
2020-08-11 22:00   3.5   3.7    93  70.7  59.2  66.5    0.00     0
2020-08-11 21:00   8.6   8.9    28  73.4  59.1  60.5    0.00     0
2020-08-11 20:00   8.6   9.1    20  73.2  61.3  65.7    0.00     0
2020-08-11 19:00  10.1  10.7    10  73.4  61.4  65.7    0.00    84
2020-08-11 18:00   8.6   9.1     7  74.1  61.8  65.0    0.00   559
2020-08-11 17:00   9.9  10.7     9  74.1  60.9  62.8    0.00   800
2020-08-11 16:00   8.7   9.7     4  75.2  61.7  62.3    0.00  1024
2020-08-11 15:00   7.2   7.8    17  74.5  57.0  54.0    0.00  1395
2020-08-11 14:00   8.2   8.7    17  74.1  57.0  54.6    0.00  1508
2020-08-11 13:00   8.9   9.5    10  73.8  60.9  63.7    0.00  1631
2020-08-11 12:00   9.3   9.9    10  74.1  59.2  59.1    0.00  1560
2020-08-11 11:00   7.8   8.6   349  75.0  66.6  74.8    0.00  1477
2020-08-11 10:00   7.8   8.9     4  73.6  65.9  76.5    0.00  1232
2020-08-11 09:00   8.0   8.6   326  72.0  67.3  85.0    0.00   556
2020-08-11 08:00   8.2   9.1   310  70.7  66.6  86.6    0.00   134
2020-08-11 07:00   8.9  10.3   287  70.2  66.7  88.6    0.00     0
2020-08-11 06:00  15.9  17.1   258  69.8  66.8  90.1    0.00     0
2020-08-11 05:00  13.0  14.6   229  68.9  66.4  91.7    0.00     0
2020-08-11 04:00   8.9  11.5   204  67.1  65.4  94.3    0.00     0
2020-08-11 03:00   6.6   7.2   200  67.5  65.6  93.5    0.00     0
2020-08-11 02:00   7.0   8.0   201  68.2  65.8  91.9    0.00     0
2020-08-11 01:00   9.9  11.9   233  70.9  67.1  87.6    0.00     0
2020-08-11 00:00  11.7  12.6   222  70.2  66.7  88.7    0.00     0
2020-08-10 23:00  19.2  21.0   246  72.1  67.2  84.3    0.00     0
2020-08-10 22:00  18.5  21.6   258  72.1  68.7  88.9    0.00     0
2020-08-10 21:00   8.7  10.1   234  70.0  67.2  90.8    0.00     0
2020-08-10 20:00  11.9  13.0   180  70.9  67.2  87.9    0.00     0
2020-08-10 19:00   6.6   7.4   135  71.6  68.2  88.7    0.00    82
2020-08-10 18:00  19.2  21.4   288  72.1  67.1  84.0    0.00     0
2020-08-10 17:00  34.0  38.7   249  68.7  68.1  97.8    0.00     0
2020-08-10 16:00  10.5  13.2   171  84.9  76.3  74.9    0.00   246
2020-08-10 15:00  11.9  15.2   180  85.1  75.3  72.0    0.00  1318
2020-08-10 14:00  12.8  15.6   183  83.5  73.9  72.5    0.00  1246
2020-08-10 13:00  11.3  14.2   173  82.6  73.5  73.5    0.00   810
2020-08-10 12:00   8.0  10.9   173  81.9  73.6  75.6    0.00   910
2020-08-10 11:00  11.1  13.2   214  81.0  73.4  77.5    0.00  1093
2020-08-10 10:00  12.1  14.6   208  80.2  73.1  78.6    0.00  1137
2020-08-10 09:00  14.4  17.5   191  78.6  72.3  80.7    0.00   903
2020-08-10 08:00  13.4  17.7   188  77.0  71.1  81.8    0.00   608
2020-08-10 07:00   9.9  12.4   165  74.3  71.0  89.2    0.00    82
2020-08-10 06:00  10.3  12.2   166  73.9  71.0  90.5    0.00     0
2020-08-10 05:00   8.9  12.2   165  73.6  71.3  92.3    0.00     0
2020-08-10 04:00  11.7  14.6   178  74.3  71.7  91.3    0.00     0
2020-08-10 03:00  11.5  13.0   190  74.3  71.7  91.3    0.00     0
2020-08-10 02:00   7.0   8.4   152  74.5  71.6  90.6    0.00     0
2020-08-10 01:00   6.4   7.6   148  73.4  70.8  91.3    0.00     0
2020-08-10 00:00   9.1  11.7   124  71.8  70.5  95.7    0.00     0
2020-08-09 23:00  18.5  19.8    11  72.0  69.9  93.1    0.00     0
2020-08-09 22:00   7.4   8.9   195  80.4  71.6  74.1    0.00     0
2020-08-09 21:00   7.4   8.7   193  80.6  71.3  72.8    0.00     0
2020-08-09 20:00   8.0   8.7   207  81.7  70.8  69.2    0.00     0
2020-08-09 19:00  12.4  15.6   197  83.5  70.0  63.3    0.00   164